Time;durP1;ratioP1;P1;durP2;ratioP2;P2;SDS_P1;SDS_P2;PMS_P1;PMS_P2;Temp;Humidity;BMP_temperature;BMP_pressure;BME280_temperature;BME280_humidity;BME280_pressure;Samples;Min_cycle;Max_cycle;Signal;HPM_P1;HPM_P2
2022/02/07 00:00:16;;;;;;;5.67;1.70;;;5.40;99.90;;;;;;5006966;28;20285;-84
2022/02/07 00:03:10;;;;;;;10.37;2.13;;;5.10;99.90;;;;;;5006477;28;20203;-84
2022/02/07 00:05:37;;;;;;;14.70;2.90;;;5.00;99.90;;;;;;5006319;28;20620;-83
2022/02/07 00:08:05;;;;;;;16.03;3.40;;;5.00;99.90;;;;;;5005109;28;20290;-83
2022/02/07 00:10:32;;;;;;;21.73;4.37;;;5.10;99.90;;;;;;5006185;28;20207;-84
2022/02/07 00:13:00;;;;;;;16.83;3.83;;;5.20;99.90;;;;;;5004616;28;20207;-83
2022/02/07 00:15:27;;;;;;;17.43;3.40;;;5.30;99.90;;;;;;5005836;28;20326;-84
2022/02/07 00:17:56;;;;;;;20.70;4.37;;;5.30;99.90;;;;;;5010130;28;20214;-85
2022/02/07 00:20:24;;;;;;;20.97;4.30;;;5.50;99.90;;;;;;5038388;28;20209;-86
2022/02/07 00:22:52;;;;;;;17.33;5.60;;;5.60;99.90;;;;;;5064613;28;20675;-89
2022/02/07 00:25:20;;;;;;;16.27;3.60;;;5.70;99.90;;;;;;5049574;28;20705;-85
2022/02/07 00:27:47;;;;;;;18.97;3.70;;;5.70;99.90;;;;;;5063792;28;20518;-85
2022/02/07 00:30:17;;;;;;;26.67;4.17;;;5.90;99.90;;;;;;5088522;28;20236;-87
2022/02/07 00:32:44;;;;;;;16.63;4.97;;;5.90;99.90;;;;;;5094347;28;20508;-86
2022/02/07 00:35:15;;;;;;;17.83;3.53;;;6.00;99.90;;;;;;5092515;28;20224;-84
2022/02/07 00:37:45;;;;;;;13.17;2.90;;;6.10;99.90;;;;;;5092309;28;20207;-81
2022/02/07 00:40:30;;;;;;;10.90;2.10;;;6.10;99.90;;;;;;5093393;28;20196;-87
2022/02/07 00:43:00;;;;;;;9.27;3.07;;;5.90;99.90;;;;;;5089016;28;20212;-85
2022/02/07 00:45:40;;;;;;;13.90;3.83;;;5.70;99.90;;;;;;5073543;28;20282;-86
2022/02/07 00:48:09;;;;;;;16.70;3.87;;;5.50;99.90;;;;;;5071806;28;20216;-83
2022/02/07 00:50:39;;;;;;;22.60;4.67;;;5.40;99.90;;;;;;5073135;28;20209;-84
2022/02/07 00:53:06;;;;;;;26.50;5.00;;;5.40;99.90;;;;;;5072272;28;20201;-87
2022/02/07 00:55:33;;;;;;;18.93;4.77;;;5.50;99.90;;;;;;5073569;28;20298;-87
2022/02/07 00:58:02;;;;;;;19.80;4.80;;;5.50;99.90;;;;;;5072675;28;20205;-84
2022/02/07 01:00:29;;;;;;;22.63;4.63;;;5.50;99.90;;;;;;5072428;28;20213;-89
2022/02/07 01:02:55;;;;;;;23.47;5.30;;;5.60;99.90;;;;;;5072312;28;20209;-85
2022/02/07 01:05:22;;;;;;;22.07;4.63;;;5.70;99.90;;;;;;5071601;28;20201;-85
2022/02/07 01:07:52;;;;;;;18.67;4.37;;;5.80;99.90;;;;;;5085916;28;20205;-84
2022/02/07 01:10:25;;;;;;;16.33;4.17;;;5.80;99.90;;;;;;5091944;28;20816;-84
2022/02/07 01:13:09;;;;;;;31.17;6.23;;;5.90;99.90;;;;;;5091002;28;20250;-85
2022/02/07 01:15:45;;;;;;;20.23;3.83;;;6.00;99.90;;;;;;5091937;28;20220;-81
2022/02/07 01:18:43;;;;;;;16.60;3.87;;;6.00;99.90;;;;;;5072221;28;20193;-81
2022/02/07 01:54:38;;;;;;;15.20;3.33;;;6.60;99.90;;;;;;5127802;27;21129;-86
2022/02/07 01:57:09;;;;;;;26.07;5.03;;;6.60;99.90;;;;;;5108094;27;20203;-86
2022/02/07 01:59:36;;;;;;;20.17;4.17;;;6.70;99.90;;;;;;5103751;28;20200;-82
2022/02/07 02:02:03;;;;;;;23.43;4.40;;;6.70;99.90;;;;;;5108971;28;20211;-84
2022/02/07 02:04:30;;;;;;;21.03;4.33;;;6.70;99.90;;;;;;5123566;28;20210;-87
2022/02/07 02:06:57;;;;;;;20.07;4.10;;;6.70;99.90;;;;;;5128189;27;20257;-84
2022/02/07 02:09:26;;;;;;;17.07;4.70;;;6.70;99.90;;;;;;5127796;27;20203;-83
2022/02/07 02:11:54;;;;;;;23.67;3.87;;;6.70;99.90;;;;;;5105958;28;20335;-87
2022/02/07 02:14:34;;;;;;;22.47;4.17;;;6.80;99.90;;;;;;5106856;28;20232;-86
2022/02/07 02:17:18;;;;;;;19.93;4.17;;;6.80;99.90;;;;;;5107075;28;20361;-83
2022/02/07 02:22:49;;;;;;;18.93;5.27;;;6.70;99.90;;;;;;5106986;28;20252;-87
2022/02/07 02:36:40;;;;;;;25.03;4.47;;;6.70;99.90;;;;;;5111519;28;20198;-87
2022/02/07 02:47:24;;;;;;;16.97;4.73;;;6.70;99.90;;;;;;5127591;28;20292;-86
2022/02/07 02:50:02;;;;;;;25.63;4.83;;;6.70;99.90;;;;;;5121320;27;20705;-86
2022/02/07 02:52:29;;;;;;;16.93;3.57;;;6.70;99.90;;;;;;5107011;28;20355;-82
2022/02/07 02:54:58;;;;;;;21.83;4.53;;;6.70;99.90;;;;;;5106599;28;20199;-82
2022/02/07 02:57:25;;;;;;;18.87;3.80;;;6.80;99.90;;;;;;5106917;28;20208;-86
2022/02/07 02:59:51;;;;;;;26.17;5.00;;;6.80;99.90;;;;;;5107334;28;20208;-87
2022/02/07 03:02:18;;;;;;;21.13;4.90;;;6.80;99.90;;;;;;5106317;28;20211;-86
2022/02/07 03:04:45;;;;;;;17.47;4.70;;;6.80;99.90;;;;;;5098962;28;20211;-87
2022/02/07 03:07:12;;;;;;;25.67;5.87;;;6.80;99.90;;;;;;5095101;28;20671;-84
2022/02/07 03:09:47;;;;;;;19.70;3.63;;;6.80;99.90;;;;;;5112741;28;20215;-87
2022/02/07 03:12:17;;;;;;;18.83;4.37;;;6.80;99.90;;;;;;5113361;28;20191;-84
2022/02/07 03:14:46;;;;;;;24.43;5.07;;;6.90;99.90;;;;;;5102463;28;20257;-83
2022/02/07 03:17:12;;;;;;;24.93;3.40;;;6.90;99.90;;;;;;5092142;28;20221;-84
2022/02/07 03:19:38;;;;;;;20.07;5.43;;;6.90;99.90;;;;;;5091755;28;20215;-85
2022/02/07 03:22:07;;;;;;;20.00;3.83;;;6.90;99.90;;;;;;5092628;28;20224;-83
2022/02/07 03:24:34;;;;;;;18.73;3.77;;;6.90;99.90;;;;;;5092834;28;20208;-87
2022/02/07 03:27:01;;;;;;;20.80;4.50;;;6.90;99.90;;;;;;5092940;28;20201;-81
2022/02/07 03:29:29;;;;;;;19.70;6.10;;;7.00;99.90;;;;;;5091205;28;20223;-84
2022/02/07 03:31:56;;;;;;;18.83;4.83;;;7.00;99.90;;;;;;5088462;28;20198;-87
2022/02/07 03:34:23;;;;;;;28.40;5.67;;;7.00;99.90;;;;;;5093144;28;20236;-87
2022/02/07 03:36:50;;;;;;;19.40;4.37;;;7.00;99.90;;;;;;5092400;28;20207;-85
2022/02/07 03:39:16;;;;;;;20.63;4.20;;;7.00;99.90;;;;;;5093561;28;20211;-87
2022/02/07 03:41:43;;;;;;;25.93;5.87;;;7.00;99.90;;;;;;5092776;28;20204;-83
2022/02/07 03:44:10;;;;;;;20.40;5.17;;;7.00;99.90;;;;;;5092870;28;20201;-83
2022/02/07 03:46:38;;;;;;;23.77;4.10;;;7.00;99.90;;;;;;5092765;28;20212;-85
2022/02/07 03:49:05;;;;;;;19.70;4.13;;;6.90;99.90;;;;;;5093039;28;20204;-87
2022/02/07 03:51:32;;;;;;;26.37;5.40;;;6.80;99.90;;;;;;5092548;28;20668;-82
2022/02/07 03:53:59;;;;;;;24.17;4.47;;;6.80;99.90;;;;;;5090173;28;20335;-88
2022/02/07 03:56:25;;;;;;;26.30;5.87;;;6.80;99.90;;;;;;5091435;28;20189;-87
2022/02/07 03:58:52;;;;;;;21.13;4.00;;;6.70;99.90;;;;;;5092741;28;20215;-87
2022/02/07 04:01:22;;;;;;;27.03;5.53;;;6.70;99.90;;;;;;5092610;28;20227;-86
2022/02/07 04:03:50;;;;;;;21.43;4.60;;;6.70;99.90;;;;;;5091496;28;20200;-86
2022/02/07 04:06:19;;;;;;;21.33;4.77;;;6.70;99.90;;;;;;5091420;28;20205;-83
2022/02/07 04:08:49;;;;;;;24.93;4.67;;;6.80;99.90;;;;;;5093098;28;20212;-87
2022/02/07 04:11:21;;;;;;;28.33;4.53;;;6.80;99.90;;;;;;5112521;28;20246;-82
2022/02/07 04:13:52;;;;;;;28.60;5.47;;;6.90;99.90;;;;;;5105293;28;20523;-86
2022/02/07 04:16:19;;;;;;;19.27;4.43;;;6.90;99.90;;;;;;5097990;28;20319;-86
2022/02/07 04:21:36;;;;;;;24.40;5.20;;;7.00;99.90;;;;;;5087725;28;20227;-82
2022/02/07 04:24:02;;;;;;;27.57;5.30;;;7.00;99.90;;;;;;5091344;28;20262;-85
2022/02/07 04:26:29;;;;;;;18.43;4.17;;;7.00;99.90;;;;;;5094275;28;20203;-86
2022/02/07 04:28:56;;;;;;;19.57;4.67;;;6.90;99.90;;;;;;5111011;28;20604;-86
2022/02/07 04:31:23;;;;;;;24.23;5.50;;;6.90;99.90;;;;;;5095854;28;20203;-85
2022/02/07 04:33:50;;;;;;;22.57;4.53;;;6.80;99.90;;;;;;5091082;28;20228;-82
2022/02/07 04:36:16;;;;;;;18.60;4.20;;;6.80;99.90;;;;;;5091016;28;20201;-83
2022/02/07 04:38:45;;;;;;;23.10;4.53;;;6.80;99.90;;;;;;5091172;28;20228;-84
2022/02/07 04:41:11;;;;;;;22.70;5.83;;;6.80;99.90;;;;;;5091537;28;20192;-87
2022/02/07 04:43:45;;;;;;;21.87;4.20;;;6.70;99.90;;;;;;5090989;28;20211;-85
2022/02/07 04:46:28;;;;;;;24.30;5.73;;;6.70;99.90;;;;;;5097053;28;20200;-88
2022/02/07 04:49:09;;;;;;;21.07;4.17;;;6.70;99.90;;;;;;5109765;28;20188;-84
2022/02/07 04:54:48;;;;;;;21.90;4.43;;;6.80;99.90;;;;;;5090774;28;20239;-85
2022/02/07 04:57:31;;;;;;;24.13;5.03;;;6.80;99.90;;;;;;5089609;28;20516;-81
2022/02/07 05:00:06;;;;;;;23.67;5.03;;;6.80;99.90;;;;;;5089632;28;20235;-87
2022/02/07 05:02:47;;;;;;;25.10;5.03;;;6.80;99.90;;;;;;5088533;28;20315;-85
2022/02/07 05:05:25;;;;;;;17.17;5.30;;;6.80;99.90;;;;;;5087875;28;20196;-83
2022/02/07 05:13:45;;;;;;;24.93;5.13;;;6.90;99.90;;;;;;5068346;28;20234;-85
2022/02/07 05:16:19;;;;;;;22.97;7.97;;;6.90;99.90;;;;;;5108808;28;20247;-84
2022/02/07 05:18:49;;;;;;;24.97;5.53;;;6.90;99.90;;;;;;5111492;28;20183;-86
2022/02/07 05:21:15;;;;;;;22.17;4.87;;;6.90;99.90;;;;;;5098353;28;20209;-86
2022/02/07 05:23:42;;;;;;;19.97;4.63;;;6.90;99.90;;;;;;5090719;28;20671;-86
2022/02/07 05:26:10;;;;;;;30.63;4.83;;;6.90;99.90;;;;;;5091777;28;20189;-85
2022/02/07 05:28:37;;;;;;;25.00;6.00;;;7.00;99.90;;;;;;5091678;28;20208;-85
2022/02/07 05:31:04;;;;;;;22.77;5.03;;;7.00;99.90;;;;;;5090194;28;20188;-84
2022/02/07 05:33:31;;;;;;;29.03;5.73;;;7.00;99.90;;;;;;5091172;28;20228;-84
2022/02/07 05:35:58;;;;;;;20.33;5.00;;;6.90;99.90;;;;;;5109093;28;20211;-86
2022/02/07 05:38:25;;;;;;;34.60;4.67;;;7.00;99.90;;;;;;5091805;28;20204;-83
2022/02/07 05:40:55;;;;;;;31.10;5.03;;;7.00;99.90;;;;;;5090775;28;20205;-84
2022/02/07 05:43:25;;;;;;;28.07;6.57;;;7.00;99.90;;;;;;5090647;28;20379;-84
2022/02/07 05:45:51;;;;;;;20.03;4.93;;;7.10;99.90;;;;;;5090873;28;20205;-85
2022/02/07 05:48:18;;;;;;;29.90;4.63;;;7.10;99.90;;;;;;5090582;28;20212;-83
2022/02/07 05:50:45;;;;;;;27.17;5.07;;;7.10;99.90;;;;;;5090725;28;20215;-86
2022/02/07 05:53:12;;;;;;;29.13;6.43;;;7.10;99.90;;;;;;5090828;28;20235;-87
2022/02/07 05:55:39;;;;;;;29.13;6.53;;;7.10;99.90;;;;;;5091192;28;20215;-85
2022/02/07 05:58:06;;;;;;;23.50;5.33;;;7.10;99.90;;;;;;5090959;28;20253;-85
2022/02/07 06:00:36;;;;;;;26.20;6.57;;;7.10;99.90;;;;;;5090222;28;20585;-85
2022/02/07 06:03:03;;;;;;;31.67;6.00;;;7.10;99.90;;;;;;5090121;28;20231;-83
2022/02/07 06:05:30;;;;;;;23.57;4.90;;;7.10;99.90;;;;;;5090028;28;20287;-83
2022/02/07 06:07:58;;;;;;;28.13;5.40;;;7.10;99.90;;;;;;5088648;28;20196;-84
2022/02/07 06:10:25;;;;;;;25.17;6.07;;;7.00;99.90;;;;;;5089676;28;20201;-84
2022/02/07 06:12:52;;;;;;;33.47;6.50;;;7.00;99.90;;;;;;5088955;28;20212;-81
2022/02/07 06:15:19;;;;;;;28.90;5.43;;;7.00;99.90;;;;;;5089558;28;20245;-82
2022/02/07 06:17:49;;;;;;;27.00;5.57;;;7.00;99.90;;;;;;5089186;28;20201;-85
2022/02/07 06:20:15;;;;;;;28.60;4.70;;;6.90;99.90;;;;;;5089341;28;20219;-80
2022/02/07 06:22:42;;;;;;;25.27;4.97;;;6.90;99.90;;;;;;5088039;28;20212;-83
2022/02/07 06:25:09;;;;;;;24.87;5.27;;;6.90;99.90;;;;;;5087740;28;20231;-84
2022/02/07 06:27:36;;;;;;;28.47;5.57;;;6.90;99.90;;;;;;5089578;28;20200;-83
2022/02/07 06:30:03;;;;;;;32.43;6.47;;;6.80;99.90;;;;;;5090441;28;20200;-83
2022/02/07 06:32:30;;;;;;;32.60;5.97;;;6.80;99.90;;;;;;5090333;28;20211;-84
2022/02/07 06:34:58;;;;;;;30.57;5.80;;;6.80;99.90;;;;;;5088557;28;20216;-84
2022/02/07 06:37:25;;;;;;;21.67;4.23;;;6.80;99.90;;;;;;5085702;28;20212;-85
2022/02/07 06:39:52;;;;;;;30.13;4.67;;;6.80;99.90;;;;;;5091454;28;20208;-84
2022/02/07 06:42:19;;;;;;;23.13;5.10;;;6.80;99.90;;;;;;5094181;28;20220;-84
2022/02/07 06:44:46;;;;;;;25.73;5.13;;;6.80;99.90;;;;;;5093711;28;20209;-86
2022/02/07 06:47:13;;;;;;;25.57;7.00;;;6.80;99.90;;;;;;5109327;28;20510;-86
2022/02/07 06:49:39;;;;;;;33.80;5.47;;;6.90;99.90;;;;;;5114676;28;20196;-85
2022/02/07 06:52:08;;;;;;;19.63;5.23;;;6.90;99.90;;;;;;5114759;28;20890;-84
2022/02/07 06:54:36;;;;;;;27.47;5.37;;;7.00;99.90;;;;;;5114501;28;20235;-87
2022/02/07 06:57:03;;;;;;;20.03;5.07;;;7.00;99.90;;;;;;5114534;28;20877;-86
2022/02/07 06:59:34;;;;;;;28.03;6.07;;;7.10;99.90;;;;;;5101025;28;20212;-85
2022/02/07 07:02:01;;;;;;;29.47;5.67;;;7.10;99.90;;;;;;5093785;28;20197;-84
2022/02/07 07:04:29;;;;;;;32.50;5.50;;;7.10;99.90;;;;;;5094044;28;20196;-86
2022/02/07 07:06:56;;;;;;;26.17;4.93;;;7.10;99.90;;;;;;5093525;28;20219;-86
2022/02/07 07:09:24;;;;;;;46.70;6.23;;;7.10;99.90;;;;;;5093937;28;20196;-86
2022/02/07 07:11:53;;;;;;;28.40;5.20;;;7.10;99.90;;;;;;5093117;28;20197;-83
2022/02/07 07:14:29;;;;;;;21.60;5.00;;;7.10;99.90;;;;;;5092361;28;20302;-84
2022/02/07 07:16:58;;;;;;;21.77;5.53;;;7.10;99.90;;;;;;5092536;28;20228;-82
2022/02/07 07:19:26;;;;;;;30.07;5.33;;;7.00;99.90;;;;;;5091793;28;20200;-85
2022/02/07 07:21:53;;;;;;;30.90;6.93;;;7.10;99.90;;;;;;5091708;28;20189;-83
2022/02/07 07:24:20;;;;;;;23.27;5.13;;;7.10;99.90;;;;;;5091661;28;20196;-83
2022/02/07 07:26:49;;;;;;;24.90;5.13;;;7.10;99.90;;;;;;5111673;28;20211;-80
2022/02/07 07:29:20;;;;;;;27.27;5.63;;;7.00;99.90;;;;;;5111920;28;20212;-81
2022/02/07 07:31:50;;;;;;;24.17;5.03;;;7.00;99.90;;;;;;5101674;28;20201;-82
2022/02/07 07:34:18;;;;;;;22.87;4.30;;;7.00;99.90;;;;;;5091321;28;20224;-84
2022/02/07 07:40:08;;;;;;;25.20;6.13;;;7.00;99.90;;;;;;5041157;28;20386;-84
2022/02/07 07:42:36;;;;;;;27.70;3.87;;;7.00;99.90;;;;;;5091623;28;20207;-85
2022/02/07 07:45:04;;;;;;;21.03;4.40;;;7.00;99.90;;;;;;5089899;28;20541;-82
2022/02/07 07:47:32;;;;;;;20.53;4.63;;;7.00;99.90;;;;;;5104497;28;20208;-83
2022/02/07 07:50:07;;;;;;;17.53;4.03;;;7.00;99.90;;;;;;5096929;28;20283;-83
2022/02/07 07:52:56;;;;;;;21.93;5.50;;;6.90;99.90;;;;;;5110151;28;20258;-84
2022/02/07 08:01:14;;;;;;;21.40;4.10;;;6.90;99.90;;;;;;5107345;28;20230;-83
2022/02/07 08:03:45;;;;;;;23.63;4.70;;;7.00;99.90;;;;;;5091660;28;20211;-82
2022/02/07 08:06:16;;;;;;;25.77;5.33;;;7.10;99.90;;;;;;5090825;28;20208;-82
2022/02/07 08:08:48;;;;;;;22.33;5.83;;;7.10;99.90;;;;;;5088433;28;20206;-82
2022/02/07 08:11:15;;;;;;;28.77;7.13;;;7.10;99.90;;;;;;5088253;28;20292;-84
2022/02/07 08:13:45;;;;;;;19.30;4.30;;;7.10;99.90;;;;;;5090079;28;20213;-82
2022/02/07 08:16:12;;;;;;;23.20;4.70;;;7.10;99.90;;;;;;5090271;28;20235;-81
2022/02/07 08:18:39;;;;;;;16.70;3.77;;;7.00;99.90;;;;;;5090192;28;20200;-82
2022/02/07 08:21:06;;;;;;;20.77;4.90;;;7.10;99.90;;;;;;5089534;28;20243;-83
2022/02/07 08:23:33;;;;;;;35.27;6.27;;;7.00;99.90;;;;;;5090681;28;20224;-83
2022/02/07 08:26:02;;;;;;;17.23;3.40;;;7.00;99.90;;;;;;5090346;28;20197;-82
2022/02/07 08:28:29;;;;;;;24.90;5.43;;;7.00;99.90;;;;;;5089375;28;20212;-82
2022/02/07 08:30:57;;;;;;;16.90;3.90;;;7.10;99.90;;;;;;5095004;28;20210;-83
2022/02/07 08:33:24;;;;;;;16.43;4.13;;;7.10;99.90;;;;;;5110604;28;20211;-84
2022/02/07 08:35:52;;;;;;;20.70;4.43;;;7.20;99.90;;;;;;5108472;28;20224;-86
2022/02/07 08:38:19;;;;;;;23.00;4.97;;;7.20;99.90;;;;;;5109127;28;20204;-83
2022/02/07 08:40:46;;;;;;;25.27;5.50;;;7.20;99.90;;;;;;5109746;28;20196;-82
2022/02/07 08:43:13;;;;;;;19.10;4.40;;;7.20;99.90;;;;;;5103813;28;20208;-84
2022/02/07 08:45:40;;;;;;;26.07;4.43;;;7.20;99.90;;;;;;5089558;28;20197;-83
2022/02/07 08:48:09;;;;;;;18.40;3.53;;;7.20;99.90;;;;;;5110047;28;20227;-84
2022/02/07 08:50:36;;;;;;;13.97;4.03;;;7.20;99.90;;;;;;5108302;28;20291;-82
2022/02/07 08:53:04;;;;;;;19.70;4.53;;;7.20;99.90;;;;;;5098525;28;20247;-81
2022/02/07 08:55:35;;;;;;;16.87;3.87;;;7.30;99.90;;;;;;5087047;28;20224;-81
2022/02/07 08:58:07;;;;;;;19.57;3.63;;;7.30;99.90;;;;;;5087564;28;20207;-82
2022/02/07 09:00:48;;;;;;;26.70;5.40;;;7.40;99.90;;;;;;5087062;28;20668;-81
2022/02/07 09:03:28;;;;;;;22.07;3.60;;;7.50;99.90;;;;;;5086578;28;20235;-82
2022/02/07 09:06:10;;;;;;;15.83;3.40;;;7.50;99.90;;;;;;5087301;28;20205;-82
2022/02/07 09:08:52;;;;;;;29.77;4.57;;;7.60;99.90;;;;;;5086625;28;20250;-81
2022/02/07 09:11:19;;;;;;;16.43;3.70;;;7.60;99.90;;;;;;5086860;28;20212;-82
2022/02/07 09:13:47;;;;;;;22.07;4.10;;;7.70;99.90;;;;;;5086940;28;20208;-79
2022/02/07 09:16:29;;;;;;;18.90;4.57;;;7.70;99.90;;;;;;5085617;28;20707;-82
2022/02/07 09:18:58;;;;;;;21.67;4.53;;;7.80;99.90;;;;;;5086598;28;20227;-83
2022/02/07 09:21:25;;;;;;;21.07;3.33;;;7.80;99.90;;;;;;5087003;28;20196;-83
2022/02/07 09:23:53;;;;;;;13.80;4.07;;;7.80;99.90;;;;;;5090013;28;20641;-84
2022/02/07 09:26:19;;;;;;;17.17;5.37;;;7.80;99.90;;;;;;5090840;28;20200;-85
2022/02/07 09:28:46;;;;;;;20.20;4.27;;;7.80;99.90;;;;;;5091042;28;20211;-82
2022/02/07 09:31:14;;;;;;;18.23;4.20;;;7.80;99.90;;;;;;5090682;28;20200;-85
2022/02/07 09:33:43;;;;;;;25.10;4.33;;;7.90;99.90;;;;;;5090507;28;20199;-85
2022/02/07 09:36:12;;;;;;;19.53;4.23;;;7.90;99.90;;;;;;5090618;28;20864;-85
2022/02/07 09:38:39;;;;;;;17.57;3.90;;;7.90;99.90;;;;;;5089831;28;20205;-83
2022/02/07 09:41:06;;;;;;;20.07;3.87;;;8.00;99.90;;;;;;5088471;28;20200;-80
2022/02/07 09:43:41;;;;;;;18.53;3.87;;;8.00;99.90;;;;;;5084243;28;20749;-82
2022/02/07 09:46:11;;;;;;;14.53;4.23;;;8.10;99.90;;;;;;5088265;28;20180;-82
2022/02/07 09:48:40;;;;;;;28.30;4.63;;;8.10;99.90;;;;;;5088598;28;20205;-81
2022/02/07 09:51:09;;;;;;;18.67;3.97;;;8.20;99.90;;;;;;5088231;28;20204;-83
2022/02/07 09:53:39;;;;;;;11.20;3.30;;;8.20;99.90;;;;;;5087483;28;20632;-83
2022/02/07 09:56:08;;;;;;;22.70;4.43;;;8.20;99.90;;;;;;5088382;28;20237;-80
2022/02/07 09:58:38;;;;;;;21.03;4.40;;;8.30;99.90;;;;;;5088891;28;20208;-84
2022/02/07 10:01:07;;;;;;;18.03;3.70;;;8.40;99.90;;;;;;5094943;28;20637;-85
2022/02/07 10:03:46;;;;;;;25.97;4.17;;;8.30;99.90;;;;;;5107529;28;20295;-82
2022/02/07 10:06:16;;;;;;;19.93;4.40;;;8.30;99.90;;;;;;5095047;28;20999;-82
2022/02/07 10:08:51;;;;;;;22.37;5.17;;;8.30;99.90;;;;;;5086882;28;20211;-81
2022/02/07 10:11:33;;;;;;;19.73;3.70;;;8.20;99.90;;;;;;5088736;28;20211;-83
2022/02/07 10:14:05;;;;;;;18.10;3.00;;;8.20;99.90;;;;;;5087856;28;20891;-83
2022/02/07 10:16:44;;;;;;;19.67;4.30;;;8.20;99.90;;;;;;5091534;28;20888;-83
2022/02/07 10:19:31;;;;;;;11.17;3.00;;;8.10;99.90;;;;;;5107985;28;20215;-83
2022/02/07 10:22:27;;;;;;;21.03;3.60;;;8.10;99.90;;;;;;5111492;28;20833;-83
2022/02/07 10:36:27;;;;;;;16.50;3.20;;;8.20;99.90;;;;;;5091023;28;20261;-82
2022/02/07 10:39:13;;;;;;;14.63;3.73;;;8.30;99.90;;;;;;5091392;28;20317;-81
2022/02/07 10:41:59;;;;;;;18.37;4.00;;;8.30;99.90;;;;;;5088757;28;20204;-83
2022/02/07 10:44:35;;;;;;;28.53;4.93;;;8.30;99.90;;;;;;5090560;28;20584;-81
2022/02/07 10:47:09;;;;;;;15.17;3.80;;;8.40;99.90;;;;;;5102517;28;20253;-80
2022/02/07 10:49:36;;;;;;;16.67;3.77;;;8.40;99.90;;;;;;5090676;28;20293;-82
2022/02/07 10:52:03;;;;;;;14.60;3.63;;;8.50;99.90;;;;;;5094250;28;20668;-81
2022/02/07 10:54:30;;;;;;;13.27;3.07;;;8.60;99.90;;;;;;5110527;27;20210;-80
2022/02/07 10:57:05;;;;;;;17.53;3.93;;;8.60;99.90;;;;;;5105387;28;20224;-80
2022/02/07 10:59:32;;;;;;;22.97;4.13;;;8.60;99.90;;;;;;5090007;28;20539;-82
2022/02/07 11:04:57;;;;;;;16.33;3.23;;;8.70;99.90;;;;;;5088404;28;20208;-81
2022/02/07 11:07:28;;;;;;;14.47;3.77;;;8.70;99.90;;;;;;5090128;28;20224;-82
2022/02/07 11:10:20;;;;;;;19.43;4.70;;;8.60;99.90;;;;;;5102772;28;20199;-86
2022/02/07 11:13:24;;;;;;;13.07;3.20;;;8.50;99.90;;;;;;5109057;27;20308;-81
2022/02/07 11:16:04;;;;;;;21.97;3.80;;;8.50;99.90;;;;;;5095851;28;20232;-81
2022/02/07 11:18:59;;;;;;;10.80;3.30;;;8.60;99.90;;;;;;5088197;28;20279;-83
2022/02/07 11:21:36;;;;;;;13.80;3.27;;;8.50;99.90;;;;;;5088374;28;20504;-81
2022/02/07 11:24:33;;;;;;;14.23;3.33;;;8.50;99.90;;;;;;5093513;28;20314;-81
2022/02/07 11:27:37;;;;;;;13.33;2.77;;;8.40;99.90;;;;;;5095643;28;20598;-82
2022/02/07 11:30:10;;;;;;;20.57;2.93;;;8.50;99.90;;;;;;5092801;28;20303;-81
2022/02/07 11:32:57;;;;;;;16.17;3.17;;;8.60;99.90;;;;;;5089217;28;20201;-81
2022/02/07 11:35:27;;;;;;;11.73;3.23;;;8.60;99.90;;;;;;5088567;28;20976;-81
2022/02/07 11:38:11;;;;;;;14.10;3.10;;;8.60;99.90;;;;;;5097378;28;20242;-82
2022/02/07 11:40:40;;;;;;;15.23;3.10;;;8.70;99.90;;;;;;5104504;28;20549;-82
2022/02/07 11:43:09;;;;;;;18.40;3.40;;;8.80;99.90;;;;;;5087554;28;20208;-79
2022/02/07 11:45:55;;;;;;;12.73;3.63;;;8.80;99.90;;;;;;5089345;28;20207;-79
2022/02/07 11:48:40;;;;;;;20.47;3.83;;;8.90;99.90;;;;;;5107901;28;20194;-80
2022/02/07 11:51:12;;;;;;;20.40;3.20;;;9.00;99.90;;;;;;5088016;28;20208;-80
2022/02/07 11:53:45;;;;;;;26.73;5.07;;;9.00;99.90;;;;;;5086676;28;20268;-80
2022/02/07 11:56:18;;;;;;;14.07;3.13;;;9.00;99.90;;;;;;5086124;28;20307;-81
2022/02/07 11:59:11;;;;;;;15.03;3.23;;;9.00;99.90;;;;;;5086287;27;20304;-80
2022/02/07 12:01:58;;;;;;;14.27;3.60;;;8.90;99.90;;;;;;5086522;28;20631;-79
2022/02/07 12:04:27;;;;;;;17.53;2.70;;;8.80;99.90;;;;;;5086336;28;20723;-79
2022/02/07 12:07:08;;;;;;;17.97;3.00;;;8.80;99.90;;;;;;5086003;28;20220;-80
2022/02/07 12:09:35;;;;;;;22.90;3.97;;;8.70;99.90;;;;;;5086272;28;20216;-81
2022/02/07 12:12:02;;;;;;;17.13;3.47;;;8.70;99.90;;;;;;5085838;28;20200;-79
2022/02/07 12:14:30;;;;;;;19.60;2.87;;;8.60;99.90;;;;;;5088480;28;20668;-80
2022/02/07 12:16:59;;;;;;;14.20;2.87;;;8.60;99.90;;;;;;5087828;28;20695;-80
2022/02/07 12:19:35;;;;;;;21.17;3.30;;;8.60;99.90;;;;;;5093707;28;20938;-81
2022/02/07 12:22:13;;;;;;;14.17;3.47;;;8.60;99.90;;;;;;5107961;28;20179;-82
2022/02/07 12:24:54;;;;;;;18.90;3.20;;;8.60;99.90;;;;;;5087702;28;20208;-80
2022/02/07 12:27:21;;;;;;;20.03;4.90;;;8.70;99.90;;;;;;5087656;28;20192;-82
2022/02/07 12:30:05;;;;;;;17.07;2.97;;;8.70;99.90;;;;;;5087967;28;20323;-82
2022/02/07 12:32:33;;;;;;;17.17;2.87;;;8.80;99.90;;;;;;5087022;28;20205;-81
2022/02/07 12:35:00;;;;;;;18.57;3.23;;;8.70;99.90;;;;;;5085962;28;20204;-80
2022/02/07 12:37:27;;;;;;;16.23;4.03;;;8.70;99.90;;;;;;5086903;28;20575;-82
2022/02/07 12:39:56;;;;;;;17.50;3.20;;;8.70;99.90;;;;;;5087038;28;20619;-81
2022/02/07 12:42:23;;;;;;;13.47;3.23;;;8.60;99.90;;;;;;5089205;28;20207;-80
2022/02/07 12:44:52;;;;;;;13.73;3.27;;;8.50;99.90;;;;;;5087355;28;20200;-82
2022/02/07 12:47:19;;;;;;;14.57;3.20;;;8.50;99.90;;;;;;5087131;28;20204;-81
2022/02/07 12:49:50;;;;;;;15.60;2.90;;;8.40;99.90;;;;;;5085013;28;20208;-82
2022/02/07 12:52:17;;;;;;;11.37;2.93;;;8.40;99.90;;;;;;5086943;28;20607;-80
2022/02/07 12:54:44;;;;;;;15.27;3.00;;;8.40;99.90;;;;;;5086405;28;20201;-80
2022/02/07 12:57:11;;;;;;;12.00;2.80;;;8.40;99.90;;;;;;5091561;22;20241;-81
2022/02/07 12:59:38;;;;;;;16.80;3.47;;;8.30;99.90;;;;;;5062002;28;20209;-82
2022/02/07 13:02:08;;;;;;;19.00;3.33;;;8.20;99.90;;;;;;5045749;28;20657;-83
2022/02/07 13:04:35;;;;;;;14.00;3.60;;;8.20;99.90;;;;;;5046855;28;20190;-82
2022/02/07 13:07:06;;;;;;;14.10;2.90;;;8.20;99.90;;;;;;5047021;28;20273;-79
2022/02/07 13:09:40;;;;;;;8.73;2.97;;;8.20;99.90;;;;;;5046638;28;20217;-79
2022/02/07 13:12:15;;;;;;;9.97;2.30;;;8.20;99.90;;;;;;5046754;28;20267;-81
2022/02/07 13:14:46;;;;;;;14.70;2.63;;;8.20;99.90;;;;;;5046481;28;20209;-79
2022/02/07 13:17:14;;;;;;;11.93;2.57;;;8.30;99.90;;;;;;5063893;28;20309;-81
2022/02/07 13:19:43;;;;;;;11.90;2.67;;;8.30;99.90;;;;;;5065705;28;20193;-77
2022/02/07 13:22:15;;;;;;;18.83;3.63;;;8.30;99.90;;;;;;5065569;28;20208;-81
2022/02/07 13:24:43;;;;;;;12.33;4.07;;;8.30;99.90;;;;;;5065060;28;20205;-80
2022/02/07 13:27:13;;;;;;;12.90;3.07;;;8.30;99.90;;;;;;5064200;28;20220;-80
2022/02/07 13:29:45;;;;;;;11.80;2.77;;;8.40;99.90;;;;;;5084664;28;20215;-81
2022/02/07 13:32:13;;;;;;;10.97;3.10;;;8.40;99.90;;;;;;5085575;28;20249;-80
2022/02/07 13:34:41;;;;;;;11.40;2.53;;;8.40;99.90;;;;;;5085229;28;20189;-81
2022/02/07 13:37:10;;;;;;;12.63;2.63;;;8.40;99.90;;;;;;5076497;28;20655;-82
2022/02/07 13:39:53;;;;;;;15.30;3.33;;;8.30;99.90;;;;;;5063710;28;20193;-80
2022/02/07 13:42:25;;;;;;;10.97;2.00;;;8.30;99.90;;;;;;5064910;28;20196;-80
2022/02/07 13:44:58;;;;;;;9.07;2.43;;;8.30;99.90;;;;;;5065801;28;20271;-84
2022/02/07 13:47:26;;;;;;;7.23;2.13;;;8.20;99.90;;;;;;5067669;28;20212;-80
2022/02/07 13:49:55;;;;;;;10.27;2.07;;;8.20;99.90;;;;;;5062900;28;20213;-78
2022/02/07 13:52:22;;;;;;;12.37;2.60;;;8.10;99.90;;;;;;5062573;28;20209;-79
2022/02/07 13:54:49;;;;;;;15.57;2.57;;;8.10;99.90;;;;;;5076250;28;20296;-79
2022/02/07 13:57:17;;;;;;;18.37;3.83;;;8.20;99.90;;;;;;5083433;28;20535;-79
2022/02/07 13:59:43;;;;;;;19.70;3.93;;;8.20;99.90;;;;;;5084340;28;20200;-80
2022/02/07 14:02:26;;;;;;;13.87;2.47;;;8.20;99.90;;;;;;5078751;28;20212;-79
2022/02/07 14:04:54;;;;;;;14.60;2.90;;;8.20;99.90;;;;;;5083565;28;20211;-80
2022/02/07 14:07:21;;;;;;;12.27;2.10;;;8.30;99.90;;;;;;5084451;28;20196;-79
2022/02/07 14:09:48;;;;;;;13.27;2.73;;;8.30;99.90;;;;;;5064199;28;20216;-79
2022/02/07 14:12:16;;;;;;;13.37;2.67;;;8.30;99.90;;;;;;5063659;28;20684;-78
2022/02/07 14:14:43;;;;;;;11.80;3.03;;;8.30;99.90;;;;;;5064081;28;20790;-80
2022/02/07 14:17:11;;;;;;;8.87;2.63;;;8.30;99.90;;;;;;5064439;28;20221;-79
2022/02/07 14:19:46;;;;;;;11.30;2.83;;;8.30;99.90;;;;;;5063041;28;20263;-81
2022/02/07 14:22:13;;;;;;;9.63;2.77;;;8.30;99.90;;;;;;5063743;28;20629;-80
2022/02/07 14:24:41;;;;;;;11.83;2.63;;;8.30;99.90;;;;;;5076273;28;20208;-80
2022/02/07 14:27:08;;;;;;;12.30;2.53;;;8.30;99.90;;;;;;5067840;28;20197;-79
2022/02/07 14:29:36;;;;;;;16.30;2.93;;;8.20;99.90;;;;;;5063434;28;20198;-78
2022/02/07 14:32:04;;;;;;;13.13;3.93;;;8.20;99.90;;;;;;5063313;28;20831;-79
2022/02/07 14:34:30;;;;;;;11.17;2.90;;;8.20;99.90;;;;;;5082764;28;20212;-78
2022/02/07 14:36:57;;;;;;;15.83;3.03;;;8.20;99.90;;;;;;5073056;28;20239;-79